Time;durP1;ratioP1;P1;durP2;ratioP2;P2;SDS_P1;SDS_P2;PMS_P1;PMS_P2;Temp;Humidity;BMP_temperature;BMP_pressure;BME280_temperature;BME280_humidity;BME280_pressure;Samples;Min_cycle;Max_cycle;Signal;HPM_P1;HPM_P2
2023/08/07 00:02:17;;;;;;;2.33;0.93;;;15.70;99.90;;;;;;5093234;28;20040;-61
2023/08/07 00:04:43;;;;;;;1.52;0.90;;;15.70;99.90;;;;;;5074288;28;20036;-61
2023/08/07 00:07:09;;;;;;;2.17;0.95;;;15.60;99.90;;;;;;5075066;28;20123;-61
2023/08/07 00:09:34;;;;;;;3.72;1.90;;;15.60;99.90;;;;;;5058223;28;20400;-61
2023/08/07 00:12:00;;;;;;;1.27;0.77;;;15.50;99.90;;;;;;5057624;28;20032;-61
2023/08/07 00:14:26;;;;;;;2.38;1.20;;;15.50;99.90;;;;;;5092987;28;20043;-61
2023/08/07 00:16:51;;;;;;;1.45;0.85;;;15.40;99.90;;;;;;5074972;28;20036;-61
2023/08/07 00:19:17;;;;;;;2.45;0.95;;;15.40;99.90;;;;;;5092000;28;20050;-61
2023/08/07 00:21:43;;;;;;;3.20;1.33;;;15.30;99.90;;;;;;5092812;28;20397;-62
2023/08/07 00:24:08;;;;;;;4.93;1.42;;;15.30;99.90;;;;;;5092808;28;20123;-62
2023/08/07 00:26:34;;;;;;;1.58;0.82;;;15.30;99.90;;;;;;5074209;28;20043;-62
2023/08/07 00:28:59;;;;;;;2.03;1.00;;;15.30;99.90;;;;;;5092780;28;20063;-62
2023/08/07 00:31:25;;;;;;;4.90;1.58;;;15.20;99.90;;;;;;5074594;28;20048;-61
2023/08/07 00:33:53;;;;;;;2.45;1.63;;;15.20;99.90;;;;;;5073595;28;20079;-61
2023/08/07 00:36:19;;;;;;;3.10;1.15;;;15.10;99.90;;;;;;5092534;28;20115;-61
2023/08/07 00:38:45;;;;;;;4.60;2.05;;;15.10;99.90;;;;;;5074302;28;20126;-62
2023/08/07 00:41:11;;;;;;;2.38;1.13;;;15.10;99.90;;;;;;5091482;28;20383;-61
2023/08/07 00:43:36;;;;;;;5.25;1.42;;;15.00;99.90;;;;;;5092021;28;20036;-61
2023/08/07 00:46:02;;;;;;;3.38;1.50;;;15.00;99.90;;;;;;5073825;28;20396;-62
2023/08/07 00:48:29;;;;;;;5.50;1.52;;;15.00;99.90;;;;;;5073936;28;20052;-61
2023/08/07 00:50:56;;;;;;;2.10;1.10;;;15.00;99.90;;;;;;5092336;28;20101;-61
2023/08/07 00:53:22;;;;;;;6.35;1.25;;;15.00;99.90;;;;;;5073713;28;20119;-62
2023/08/07 00:55:48;;;;;;;6.97;2.83;;;15.10;99.90;;;;;;5073979;28;20059;-61
2023/08/07 00:58:14;;;;;;;5.85;2.00;;;15.10;99.90;;;;;;5057416;28;20032;-61
2023/08/07 01:00:42;;;;;;;2.47;1.20;;;15.20;99.90;;;;;;5072805;28;20511;-61
2023/08/07 01:03:08;;;;;;;8.88;2.95;;;15.10;99.90;;;;;;5074117;28;20482;-62
2023/08/07 01:05:34;;;;;;;3.00;1.00;;;15.10;99.90;;;;;;5074213;28;20116;-61
2023/08/07 01:08:00;;;;;;;4.20;1.80;;;15.10;99.90;;;;;;5057126;28;20393;-61
2023/08/07 01:11:04;;;;;;;6.45;1.42;;;15.10;99.90;;;;;;5091883;28;20052;-61
2023/08/07 01:13:51;;;;;;;2.88;1.52;;;15.10;99.90;;;;;;5073293;28;20039;-62
2023/08/07 01:16:42;;;;;;;4.63;1.75;;;15.10;99.90;;;;;;5073218;28;20118;-62
2023/08/07 01:19:25;;;;;;;2.25;1.10;;;15.00;99.90;;;;;;5091952;28;20040;-61
2023/08/07 01:22:10;;;;;;;2.97;1.60;;;15.00;99.90;;;;;;5073003;28;20085;-61
2023/08/07 01:24:37;;;;;;;3.17;1.33;;;15.00;99.90;;;;;;5057412;28;20039;-62
2023/08/07 01:27:19;;;;;;;3.83;1.27;;;14.90;99.90;;;;;;5092191;28;20040;-62
2023/08/07 01:30:07;;;;;;;3.50;1.30;;;14.90;99.90;;;;;;5073257;28;20040;-62
2023/08/07 01:33:03;;;;;;;4.72;1.98;;;15.00;99.90;;;;;;5091689;28;20040;-61
2023/08/07 01:35:33;;;;;;;2.70;1.33;;;14.90;99.90;;;;;;5072658;28;20389;-61
2023/08/07 01:37:59;;;;;;;2.80;1.27;;;14.80;99.90;;;;;;5092404;28;20036;-61
2023/08/07 01:40:26;;;;;;;6.22;2.13;;;14.80;99.90;;;;;;5073591;28;20647;-62
2023/08/07 01:42:52;;;;;;;4.05;1.50;;;14.80;99.90;;;;;;5072898;28;20123;-62
2023/08/07 01:45:25;;;;;;;1.75;0.98;;;14.80;99.90;;;;;;5073551;28;20127;-61
2023/08/07 01:47:52;;;;;;;3.17;1.52;;;14.70;99.90;;;;;;5086713;28;20424;-61
2023/08/07 01:50:19;;;;;;;2.25;1.10;;;14.70;99.90;;;;;;5090928;28;20473;-61
2023/08/07 01:52:46;;;;;;;3.80;1.95;;;14.70;99.90;;;;;;5073942;28;20028;-61
2023/08/07 01:55:13;;;;;;;2.53;1.30;;;14.60;99.90;;;;;;5095657;28;20137;-61
2023/08/07 01:57:39;;;;;;;3.45;1.75;;;14.60;99.90;;;;;;5060079;28;20115;-61
2023/08/07 02:00:06;;;;;;;1.15;0.75;;;14.60;99.90;;;;;;5095580;28;20170;-61
2023/08/07 02:02:32;;;;;;;1.60;0.82;;;14.60;99.90;;;;;;5061013;28;20047;-61
2023/08/07 02:04:58;;;;;;;5.00;2.45;;;14.60;99.90;;;;;;5076857;28;20477;-62
2023/08/07 02:07:23;;;;;;;5.72;1.88;;;14.50;99.90;;;;;;5094807;28;20373;-61
2023/08/07 02:09:49;;;;;;;3.55;1.25;;;14.50;99.90;;;;;;5075749;28;20170;-61
2023/08/07 02:12:15;;;;;;;8.32;2.15;;;14.50;99.90;;;;;;5059915;28;20051;-62
2023/08/07 02:14:41;;;;;;;3.67;1.92;;;14.50;99.90;;;;;;5060622;28;20036;-61
2023/08/07 02:17:07;;;;;;;4.95;2.30;;;14.40;99.90;;;;;;5077230;28;20028;-62
2023/08/07 02:19:32;;;;;;;8.18;1.80;;;14.50;99.90;;;;;;5059678;28;20044;-62
2023/08/07 02:21:58;;;;;;;2.17;1.23;;;14.50;99.90;;;;;;5076859;28;20039;-62
2023/08/07 02:24:24;;;;;;;2.08;1.33;;;14.50;99.90;;;;;;5076302;28;20544;-62
2023/08/07 02:26:49;;;;;;;3.53;1.60;;;14.50;99.90;;;;;;5076918;28;20047;-61
2023/08/07 02:29:15;;;;;;;2.78;1.25;;;14.60;99.90;;;;;;5060291;28;20051;-61
2023/08/07 02:31:40;;;;;;;3.30;1.85;;;14.60;99.90;;;;;;5076158;28;20062;-61
2023/08/07 02:34:06;;;;;;;5.82;2.58;;;14.70;99.90;;;;;;5094726;28;20385;-62
2023/08/07 02:36:32;;;;;;;12.25;1.83;;;14.70;99.90;;;;;;5076981;28;20571;-62
2023/08/07 02:38:58;;;;;;;5.60;2.47;;;14.80;99.90;;;;;;5094452;28;20369;-62
2023/08/07 02:41:23;;;;;;;4.93;1.70;;;14.80;99.90;;;;;;5076765;28;20119;-62
2023/08/07 02:43:49;;;;;;;6.57;2.33;;;14.90;99.90;;;;;;5076614;28;20048;-62
2023/08/07 02:46:15;;;;;;;2.97;1.45;;;14.90;99.90;;;;;;5093800;28;20098;-62
2023/08/07 02:48:40;;;;;;;3.38;1.75;;;15.00;99.90;;;;;;5094331;28;20410;-61
2023/08/07 02:51:06;;;;;;;3.63;1.25;;;15.00;99.90;;;;;;5094725;28;20082;-61
2023/08/07 02:53:32;;;;;;;3.53;1.50;;;15.00;99.90;;;;;;5075560;28;20096;-62
2023/08/07 02:55:57;;;;;;;1.92;0.93;;;15.10;99.90;;;;;;5076818;28;20044;-61
2023/08/07 02:58:23;;;;;;;7.05;1.38;;;15.10;99.90;;;;;;5076247;28;20036;-61
2023/08/07 03:00:49;;;;;;;7.13;2.15;;;15.20;99.90;;;;;;5075191;28;20047;-62
2023/08/07 03:03:14;;;;;;;2.75;1.33;;;15.30;99.90;;;;;;5076024;28;20133;-62
2023/08/07 03:05:51;;;;;;;3.20;1.83;;;15.40;99.90;;;;;;5093494;28;20070;-62
2023/08/07 03:08:17;;;;;;;8.25;2.45;;;15.50;99.90;;;;;;5058597;28;20128;-62
2023/08/07 03:10:53;;;;;;;13.10;3.13;;;15.50;99.90;;;;;;5076439;28;20118;-62
2023/08/07 03:13:19;;;;;;;7.28;3.03;;;15.60;99.90;;;;;;5093914;28;20447;-62
2023/08/07 03:15:45;;;;;;;19.70;3.33;;;15.60;99.90;;;;;;5093146;28;20039;-62
2023/08/07 03:18:10;;;;;;;11.10;3.03;;;15.60;99.90;;;;;;5094434;28;20044;-62
2023/08/07 03:20:37;;;;;;;11.40;3.83;;;15.60;99.90;;;;;;5076053;28;20067;-62
2023/08/07 03:23:03;;;;;;;5.72;2.80;;;15.60;99.90;;;;;;5075653;28;20054;-62
2023/08/07 03:25:29;;;;;;;10.88;3.58;;;15.60;99.90;;;;;;5075670;28;20119;-62
2023/08/07 03:27:54;;;;;;;6.00;3.10;;;15.60;99.90;;;;;;5074841;28;20454;-62
2023/08/07 03:30:20;;;;;;;9.45;3.17;;;15.60;99.90;;;;;;5075711;28;20040;-62
2023/08/07 03:32:46;;;;;;;7.47;2.05;;;15.50;99.90;;;;;;5059031;28;20039;-61
2023/08/07 03:35:11;;;;;;;7.03;2.40;;;15.50;99.90;;;;;;5074565;28;20036;-61
2023/08/07 03:37:37;;;;;;;6.65;2.55;;;15.50;99.90;;;;;;5075747;28;20123;-61
2023/08/07 03:40:03;;;;;;;5.28;2.55;;;15.50;99.90;;;;;;5094076;28;20043;-61
2023/08/07 03:42:29;;;;;;;6.95;3.10;;;15.50;99.90;;;;;;5074578;28;20048;-61
2023/08/07 03:44:54;;;;;;;4.53;2.13;;;15.50;99.90;;;;;;5075769;28;20047;-62
2023/08/07 03:47:20;;;;;;;6.40;2.05;;;15.50;99.90;;;;;;5075570;28;20067;-62
2023/08/07 03:49:46;;;;;;;4.30;1.95;;;15.40;99.90;;;;;;5074670;28;20561;-62
2023/08/07 03:52:12;;;;;;;5.82;2.65;;;15.40;99.90;;;;;;5075419;28;20048;-62
2023/08/07 03:54:37;;;;;;;3.83;1.65;;;15.40;99.90;;;;;;5093548;28;20393;-62
2023/08/07 03:57:03;;;;;;;10.15;3.35;;;15.40;99.90;;;;;;5074478;28;20059;-62
2023/08/07 03:59:29;;;;;;;6.47;2.20;;;15.40;99.90;;;;;;5074557;28;20403;-61
2023/08/07 04:01:55;;;;;;;5.00;2.22;;;15.50;99.90;;;;;;5075456;28;20040;-62
2023/08/07 04:04:21;;;;;;;4.93;2.22;;;15.50;99.90;;;;;;5074347;28;20126;-62
2023/08/07 04:06:46;;;;;;;4.00;2.25;;;15.50;99.90;;;;;;5075162;28;20119;-62
2023/08/07 04:09:12;;;;;;;12.38;2.38;;;15.40;99.90;;;;;;5074868;28;20044;-61
2023/08/07 04:11:38;;;;;;;9.00;2.65;;;15.40;99.90;;;;;;5074059;28;20503;-61
2023/08/07 04:14:03;;;;;;;8.50;2.83;;;15.30;99.90;;;;;;5093451;28;20032;-61
2023/08/07 04:16:31;;;;;;;6.03;2.05;;;15.20;99.90;;;;;;5074579;28;20040;-62
2023/08/07 04:18:56;;;;;;;5.28;2.22;;;15.10;99.90;;;;;;5074547;28;20036;-63
2023/08/07 04:21:22;;;;;;;9.38;3.05;;;15.10;99.90;;;;;;5074496;28;20044;-62
2023/08/07 04:23:48;;;;;;;7.20;3.55;;;15.00;99.90;;;;;;5074189;28;20139;-62
2023/08/07 04:26:14;;;;;;;14.10;4.18;;;14.90;99.90;;;;;;5091518;28;20122;-62
2023/08/07 04:28:40;;;;;;;9.07;3.58;;;15.00;99.90;;;;;;5057943;28;20040;-62
2023/08/07 04:31:06;;;;;;;8.75;3.22;;;14.90;99.90;;;;;;5092129;28;20048;-62
2023/08/07 04:33:31;;;;;;;15.15;3.30;;;15.00;99.90;;;;;;5057962;28;20395;-63
2023/08/07 04:35:57;;;;;;;8.75;3.08;;;14.90;99.90;;;;;;5074774;28;20097;-62
2023/08/07 04:38:23;;;;;;;6.57;2.88;;;14.80;99.90;;;;;;5073730;28;20040;-62
2023/08/07 04:40:50;;;;;;;11.15;3.03;;;14.80;99.90;;;;;;5074383;28;20051;-62
2023/08/07 04:43:17;;;;;;;10.55;4.03;;;14.70;99.90;;;;;;5092699;28;20032;-62
2023/08/07 04:45:44;;;;;;;8.07;3.63;;;14.70;99.90;;;;;;5073814;28;20036;-62
2023/08/07 04:48:14;;;;;;;10.88;3.38;;;14.70;99.90;;;;;;5091452;28;20090;-62
2023/08/07 04:50:40;;;;;;;6.18;3.15;;;14.80;99.90;;;;;;5057002;28;20044;-62
2023/08/07 04:53:06;;;;;;;10.90;3.55;;;14.70;99.90;;;;;;5091709;28;20043;-62
2023/08/07 04:55:32;;;;;;;7.68;3.08;;;14.80;99.90;;;;;;5057629;28;20040;-62
2023/08/07 04:57:58;;;;;;;7.22;2.80;;;14.80;99.90;;;;;;5092862;28;20084;-62
2023/08/07 05:00:24;;;;;;;7.60;3.55;;;14.80;99.90;;;;;;5073366;28;20126;-62
2023/08/07 05:02:50;;;;;;;19.83;3.70;;;14.80;99.90;;;;;;5074186;28;20040;-62
2023/08/07 05:05:16;;;;;;;8.48;3.72;;;14.80;99.90;;;;;;5091547;28;20043;-62
2023/08/07 05:07:42;;;;;;;13.82;3.53;;;14.80;99.90;;;;;;5073451;28;20089;-62
2023/08/07 05:10:09;;;;;;;7.95;3.10;;;14.90;99.90;;;;;;5074366;28;20378;-62
2023/08/07 05:12:35;;;;;;;19.73;4.10;;;14.90;99.90;;;;;;5074188;28;20040;-62
2023/08/07 05:15:01;;;;;;;6.40;2.63;;;14.90;99.90;;;;;;5073502;28;20378;-62
2023/08/07 05:17:27;;;;;;;8.20;3.97;;;14.90;99.90;;;;;;5074230;28;20036;-62
2023/08/07 05:19:53;;;;;;;5.95;2.72;;;15.00;99.90;;;;;;5074202;28;20048;-62
2023/08/07 05:22:18;;;;;;;5.45;3.05;;;15.00;99.90;;;;;;5073245;28;20555;-62
2023/08/07 05:24:45;;;;;;;4.78;2.80;;;15.10;99.90;;;;;;5072888;28;20144;-62
2023/08/07 05:27:11;;;;;;;14.63;3.05;;;15.10;99.90;;;;;;5092070;28;20040;-62
2023/08/07 05:29:43;;;;;;;5.30;2.67;;;15.10;99.90;;;;;;5094049;28;20048;-62
2023/08/07 05:32:13;;;;;;;6.20;2.80;;;15.00;99.90;;;;;;5096213;28;20036;-63
2023/08/07 05:34:39;;;;;;;3.22;1.60;;;15.00;99.90;;;;;;5077220;28;20047;-62
2023/08/07 05:37:05;;;;;;;5.63;2.78;;;14.90;99.90;;;;;;5077869;28;20036;-62
2023/08/07 05:39:31;;;;;;;10.73;3.20;;;14.90;99.90;;;;;;5077316;28;20447;-62
2023/08/07 05:41:57;;;;;;;11.40;2.60;;;14.80;99.90;;;;;;5061113;28;20131;-63
2023/08/07 05:44:27;;;;;;;7.05;2.78;;;14.80;99.90;;;;;;5096030;28;20086;-62
2023/08/07 05:46:52;;;;;;;10.95;3.60;;;14.70;99.90;;;;;;5095719;28;20056;-62
2023/08/07 05:49:18;;;;;;;9.05;2.88;;;14.70;99.90;;;;;;5076449;28;20457;-63
2023/08/07 05:51:44;;;;;;;6.50;2.10;;;14.60;99.90;;;;;;5076660;28;20539;-62
2023/08/07 05:54:10;;;;;;;6.13;2.30;;;14.60;99.90;;;;;;5077823;28;20192;-62
2023/08/07 05:56:38;;;;;;;8.73;2.92;;;14.60;99.90;;;;;;5060317;28;20485;-62
2023/08/07 05:59:04;;;;;;;8.65;2.50;;;14.70;99.90;;;;;;5077991;28;20517;-62
2023/08/07 06:01:32;;;;;;;6.07;3.05;;;14.80;99.90;;;;;;5073758;28;20076;-62
2023/08/07 06:03:58;;;;;;;9.60;2.58;;;14.90;99.90;;;;;;5054226;28;20048;-62
2023/08/07 06:06:27;;;;;;;6.30;2.70;;;14.90;99.90;;;;;;5058928;28;20035;-62
2023/08/07 06:08:53;;;;;;;9.82;2.72;;;14.90;99.90;;;;;;5071319;28;20512;-62
2023/08/07 06:11:19;;;;;;;4.43;2.33;;;15.00;99.90;;;;;;5056271;28;20072;-62
2023/08/07 06:13:45;;;;;;;4.15;1.83;;;15.10;99.90;;;;;;5086690;28;20145;-62
2023/08/07 06:16:10;;;;;;;4.07;1.60;;;15.10;99.90;;;;;;5079818;28;20032;-62
2023/08/07 06:18:37;;;;;;;8.32;2.45;;;15.10;99.90;;;;;;5060307;28;20129;-62
2023/08/07 06:21:06;;;;;;;4.65;2.00;;;15.10;99.90;;;;;;5067549;28;20040;-62
2023/08/07 06:23:34;;;;;;;7.45;2.67;;;15.00;99.90;;;;;;5069457;28;20078;-62
2023/08/07 06:26:03;;;;;;;3.00;1.48;;;15.00;99.90;;;;;;5074521;28;20176;-62
2023/08/07 06:28:33;;;;;;;6.30;2.38;;;14.90;99.90;;;;;;5073766;28;20036;-62
2023/08/07 06:31:03;;;;;;;8.27;2.22;;;14.90;99.90;;;;;;5056617;28;20031;-62
2023/08/07 06:33:29;;;;;;;11.65;2.33;;;14.90;99.90;;;;;;5073896;28;20119;-62
2023/08/07 06:35:55;;;;;;;4.65;2.00;;;14.90;99.90;;;;;;5073833;28;20051;-63
2023/08/07 06:38:21;;;;;;;8.40;2.33;;;14.90;99.90;;;;;;5072839;28;20047;-62
2023/08/07 06:40:46;;;;;;;5.93;2.28;;;14.80;99.90;;;;;;5092047;28;20047;-63
2023/08/07 06:43:12;;;;;;;6.80;2.38;;;14.70;99.90;;;;;;5074246;28;20047;-63
2023/08/07 06:45:38;;;;;;;5.38;1.90;;;14.70;99.90;;;;;;5073089;28;20123;-62
2023/08/07 06:48:03;;;;;;;8.65;2.63;;;14.60;99.90;;;;;;5091807;28;20067;-62
2023/08/07 06:50:29;;;;;;;7.35;2.28;;;14.60;99.90;;;;;;5073175;28;20044;-62
2023/08/07 06:52:55;;;;;;;3.90;1.90;;;14.60;99.90;;;;;;5072659;28;20047;-62
2023/08/07 06:55:21;;;;;;;5.78;2.60;;;14.60;99.90;;;;;;5073695;28;20119;-62
2023/08/07 06:57:46;;;;;;;6.88;2.22;;;14.70;99.90;;;;;;5066405;28;20396;-63
2023/08/07 07:00:12;;;;;;;5.82;2.30;;;14.80;99.90;;;;;;5089790;28;20051;-62
2023/08/07 07:02:38;;;;;;;7.72;2.30;;;15.00;99.90;;;;;;5090830;28;20496;-62
2023/08/07 07:05:04;;;;;;;10.45;2.90;;;15.10;99.90;;;;;;5092010;28;20123;-62
2023/08/07 07:07:30;;;;;;;9.75;3.25;;;15.10;99.90;;;;;;5055542;28;20052;-63
2023/08/07 07:10:00;;;;;;;8.48;2.58;;;15.00;99.90;;;;;;5084032;28;20067;-62
2023/08/07 07:12:26;;;;;;;17.70;4.07;;;14.90;99.90;;;;;;5068500;28;20047;-62
2023/08/07 07:14:52;;;;;;;8.48;3.17;;;14.80;99.90;;;;;;5072465;28;20544;-62
2023/08/07 07:17:18;;;;;;;9.00;3.67;;;14.70;99.90;;;;;;5073012;28;20158;-62
2023/08/07 07:19:44;;;;;;;8.57;3.60;;;14.70;99.90;;;;;;5089474;28;20036;-62
2023/08/07 07:22:09;;;;;;;19.85;3.90;;;14.60;99.90;;;;;;5071463;28;20036;-62
2023/08/07 07:24:35;;;;;;;6.82;3.30;;;14.60;99.90;;;;;;5090537;28;20196;-62
2023/08/07 07:27:01;;;;;;;8.00;3.35;;;14.70;99.90;;;;;;5082133;28;20369;-62
2023/08/07 07:29:26;;;;;;;4.93;2.75;;;14.80;99.90;;;;;;5069845;28;20606;-62
2023/08/07 07:31:53;;;;;;;8.32;2.35;;;14.80;99.90;;;;;;5054807;28;20051;-63
2023/08/07 07:34:19;;;;;;;6.65;2.75;;;14.80;99.90;;;;;;5072557;28;20395;-62
2023/08/07 07:36:45;;;;;;;6.68;3.08;;;14.70;99.90;;;;;;5072267;28;20040;-62
2023/08/07 07:39:11;;;;;;;5.53;2.63;;;14.60;99.90;;;;;;5049440;28;20040;-62
2023/08/07 07:41:36;;;;;;;10.75;3.25;;;14.50;99.90;;;;;;5089833;28;20036;-62
2023/08/07 07:44:02;;;;;;;8.48;3.72;;;14.50;99.90;;;;;;5090184;28;20105;-63
2023/08/07 07:46:28;;;;;;;4.93;2.72;;;14.40;99.90;;;;;;5085744;28;20364;-62
2023/08/07 07:48:55;;;;;;;6.18;2.85;;;14.30;99.90;;;;;;5089927;28;20040;-63
2023/08/07 07:51:21;;;;;;;5.25;2.67;;;14.20;99.90;;;;;;5090011;28;20400;-63
2023/08/07 07:53:47;;;;;;;11.25;5.65;;;14.20;99.90;;;;;;5072467;28;20730;-63
2023/08/07 07:56:13;;;;;;;9.10;4.22;;;14.20;99.90;;;;;;5052780;28;20037;-62
2023/08/07 07:58:40;;;;;;;9.50;2.83;;;14.20;99.90;;;;;;5071785;28;20079;-63
2023/08/07 08:01:06;;;;;;;10.43;5.45;;;14.30;99.90;;;;;;5065219;28;20036;-62
2023/08/07 08:03:32;;;;;;;13.10;5.57;;;14.30;99.90;;;;;;5054913;28;20047;-63
2023/08/07 08:05:58;;;;;;;1075.63;113.68;;;14.40;99.90;;;;;;5090531;28;20463;-63
2023/08/07 08:08:24;;;;;;;20.27;10.30;;;14.60;99.90;;;;;;5071335;28;20043;-63
2023/08/07 08:10:51;;;;;;;23.55;12.40;;;14.90;99.90;;;;;;5071312;28;20118;-63
2023/08/07 08:13:17;;;;;;;11.63;6.15;;;15.10;99.90;;;;;;5071520;28;20547;-62
2023/08/07 08:15:43;;;;;;;17.73;12.25;;;15.30;99.90;;;;;;5075313;28;20424;-62
2023/08/07 08:18:09;;;;;;;9.05;4.32;;;15.40;99.90;;;;;;5067491;28;20111;-62
2023/08/07 08:20:35;;;;;;;8.88;2.50;;;15.50;99.90;;;;;;5052324;28;20144;-63
2023/08/07 08:23:00;;;;;;;8.77;2.75;;;15.70;99.90;;;;;;5070942;28;20044;-63
2023/08/07 08:25:26;;;;;;;11.98;3.03;;;15.90;99.90;;;;;;5070857;28;20047;-62
2023/08/07 08:27:52;;;;;;;8.20;2.60;;;16.00;99.90;;;;;;5055612;28;20110;-62
2023/08/07 08:30:17;;;;;;;9.50;2.55;;;16.10;99.90;;;;;;5087664;28;20489;-63
2023/08/07 08:32:43;;;;;;;13.25;3.60;;;16.20;99.90;;;;;;5045077;28;20040;-62
2023/08/07 08:35:09;;;;;;;7.45;3.28;;;16.40;99.90;;;;;;5071316;28;20043;-62
2023/08/07 08:37:35;;;;;;;10.90;3.05;;;16.40;99.90;;;;;;5088228;28;20117;-63
2023/08/07 08:40:01;;;;;;;6.85;2.25;;;16.40;99.90;;;;;;5060715;28;20044;-63
2023/08/07 08:42:27;;;;;;;572.53;310.17;;;16.40;99.90;;;;;;5054376;28;20040;-63
2023/08/07 08:44:56;;;;;;;6.80;2.03;;;16.50;99.90;;;;;;5087143;28;20093;-63
2023/08/07 08:47:22;;;;;;;5.80;2.10;;;16.50;99.90;;;;;;5079802;28;20063;-62
2023/08/07 08:50:15;;;;;;;7.28;2.60;;;16.50;99.90;;;;;;5071461;28;20056;-62
2023/08/07 08:52:45;;;;;;;12.13;3.25;;;16.60;99.90;;;;;;5045264;28;20040;-62
2023/08/07 08:55:13;;;;;;;10.77;3.65;;;16.70;99.90;;;;;;5071451;28;20036;-62
2023/08/07 08:57:40;;;;;;;8.60;2.63;;;16.90;99.90;;;;;;5072117;28;20530;-62
2023/08/07 09:00:17;;;;;;;11.23;3.05;;;16.90;99.90;;;;;;5054091;28;20105;-62
2023/08/07 09:02:47;;;;;;;10.18;3.28;;;16.80;99.90;;;;;;5071304;28;20052;-62
2023/08/07 09:05:19;;;;;;;13.18;3.88;;;16.60;99.90;;;;;;5070841;28;20052;-62
2023/08/07 09:07:46;;;;;;;10.00;3.35;;;16.40;99.90;;;;;;5053351;28;20130;-63
2023/08/07 09:10:13;;;;;;;11.60;5.47;;;16.30;99.90;;;;;;5071231;28;20052;-62
2023/08/07 09:13:00;;;;;;;14.52;6.97;;;16.20;99.90;;;;;;5064616;28;20818;-62
2023/08/07 09:15:29;;;;;;;10.27;4.55;;;16.20;99.90;;;;;;5071475;28;20086;-60
2023/08/07 09:17:55;;;;;;;8.60;3.72;;;16.20;99.90;;;;;;5053671;28;20122;-61
2023/08/07 09:20:22;;;;;;;7.68;3.35;;;16.20;99.90;;;;;;5088953;28;20392;-63
2023/08/07 09:22:48;;;;;;;8.75;3.20;;;16.30;99.90;;;;;;5071471;28;20048;-62
2023/08/07 09:25:14;;;;;;;6.82;2.63;;;16.40;99.90;;;;;;5039479;28;20374;-63
2023/08/07 09:27:40;;;;;;;4.88;2.10;;;16.70;99.90;;;;;;5089058;28;20409;-62
2023/08/07 09:30:09;;;;;;;8.20;2.83;;;16.90;99.90;;;;;;5091278;28;20126;-62
2023/08/07 09:32:35;;;;;;;10.82;3.72;;;17.00;99.90;;;;;;5091225;28;20525;-63
2023/08/07 09:35:04;;;;;;;10.30;3.25;;;16.90;99.90;;;;;;5056696;28;20128;-63
2023/08/07 09:37:30;;;;;;;8.52;2.90;;;16.80;99.90;;;;;;5086693;28;20111;-62
2023/08/07 09:39:55;;;;;;;9.68;3.25;;;16.70;99.90;;;;;;5054075;28;20115;-62
2023/08/07 09:42:21;;;;;;;13.70;4.20;;;16.60;99.90;;;;;;5053751;28;20048;-62
2023/08/07 09:44:48;;;;;;;13.98;5.90;;;16.60;99.90;;;;;;5055341;28;20056;-62
2023/08/07 09:47:16;;;;;;;9.65;3.55;;;16.60;99.90;;;;;;5073786;28;20127;-63
2023/08/07 09:49:43;;;;;;;8.18;2.95;;;16.50;99.90;;;;;;5073447;28;20044;-62
2023/08/07 09:52:10;;;;;;;9.40;2.42;;;16.50;99.90;;;;;;5091881;28;20034;-62
2023/08/07 09:54:36;;;;;;;7.72;3.28;;;16.70;99.90;;;;;;5072857;28;20500;-63
2023/08/07 09:57:03;;;;;;;10.50;2.88;;;16.90;99.90;;;;;;5074023;28;20131;-64
2023/08/07 09:59:29;;;;;;;13.32;3.83;;;16.90;99.90;;;;;;5073032;28;20090;-64
2023/08/07 10:01:55;;;;;;;13.10;2.75;;;16.80;99.90;;;;;;5073350;28;20048;-61
2023/08/07 10:04:22;;;;;;;13.27;2.80;;;16.70;99.90;;;;;;5073329;28;20060;-61
2023/08/07 10:06:49;;;;;;;6.13;2.63;;;16.50;99.90;;;;;;5057410;28;20431;-62
2023/08/07 10:09:14;;;;;;;9.90;3.75;;;16.40;99.90;;;;;;5073161;28;20104;-61
2023/08/07 10:11:41;;;;;;;11.40;3.58;;;16.40;99.90;;;;;;5073776;28;20036;-61
2023/08/07 10:14:08;;;;;;;8.57;3.55;;;16.30;99.90;;;;;;5073500;28;20061;-61
2023/08/07 10:16:39;;;;;;;12.30;3.83;;;16.40;99.90;;;;;;5076508;28;20493;-62
2023/08/07 10:19:05;;;;;;;8.00;3.53;;;16.60;99.90;;;;;;5060430;28;20044;-61
2023/08/07 10:21:35;;;;;;;9.00;2.78;;;16.80;99.90;;;;;;5077080;28;20480;-61
2023/08/07 10:24:04;;;;;;;10.18;2.92;;;17.00;99.90;;;;;;5075751;28;20043;-61
2023/08/07 10:26:32;;;;;;;6.05;2.20;;;17.00;99.90;;;;;;5075923;28;20046;-61
2023/08/07 10:29:00;;;;;;;6.13;2.30;;;17.10;99.90;;;;;;5071976;28;20074;-63
2023/08/07 10:31:27;;;;;;;7.68;2.13;;;17.20;99.90;;;;;;5062892;28;20472;-62
2023/08/07 10:33:53;;;;;;;7.38;2.55;;;17.30;99.90;;;;;;5078192;28;20036;-63
2023/08/07 10:36:19;;;;;;;9.73;2.53;;;17.40;99.90;;;;;;5092579;28;20378;-63
2023/08/07 10:38:48;;;;;;;9.25;2.53;;;17.60;99.90;;;;;;5064930;28;20465;-63
2023/08/07 10:41:15;;;;;;;9.45;2.10;;;17.60;99.90;;;;;;5060411;28;20044;-61
2023/08/07 10:43:45;;;;;;;8.63;2.90;;;17.60;99.90;;;;;;5083912;28;20116;-60
2023/08/07 10:46:20;;;;;;;10.55;3.03;;;17.50;99.90;;;;;;5084127;28;20120;-61
2023/08/07 10:48:47;;;;;;;10.82;2.97;;;17.40;99.90;;;;;;5072048;28;20040;-61
2023/08/07 10:51:30;;;;;;;9.40;2.78;;;17.20;99.90;;;;;;5073487;28;20477;-60
2023/08/07 10:53:56;;;;;;;6.75;1.85;;;17.40;99.90;;;;;;5064650;28;20484;-61
2023/08/07 10:56:34;;;;;;;9.65;2.88;;;17.40;99.90;;;;;;5048157;28;20043;-60
2023/08/07 10:59:08;;;;;;;7.90;2.25;;;17.50;99.90;;;;;;5091786;28;20121;-61
2023/08/07 11:01:34;;;;;;;;;;;17.50;99.90;;;;;;5074286;28;20050;-60
2023/08/07 11:04:12;;;;;;;8.13;2.28;;;17.50;99.90;;;;;;5092486;28;19915;-61
2023/08/07 11:06:40;;;;;;;7.25;2.63;;;17.40;99.90;;;;;;5072866;28;20044;-61
2023/08/07 11:09:08;;;;;;;7.85;2.55;;;17.40;99.90;;;;;;5074078;28;20055;-61
2023/08/07 11:11:39;;;;;;;6.13;2.40;;;17.40;99.90;;;;;;5073172;28;20044;-61
2023/08/07 11:14:10;;;;;;;9.50;2.67;;;17.40;99.90;;;;;;5072899;28;20081;-61
2023/08/07 11:16:37;;;;;;;8.23;2.70;;;17.40;99.90;;;;;;5071871;28;20044;-61
2023/08/07 11:19:04;;;;;;;7.20;1.98;;;17.40;99.90;;;;;;5052983;28;20048;-61
2023/08/07 11:21:33;;;;;;;7.47;2.38;;;17.40;99.90;;;;;;5064511;28;20084;-61
2023/08/07 11:23:59;;;;;;;6.38;1.75;;;17.40;99.90;;;;;;5073614;28;20036;-61
2023/08/07 11:26:27;;;;;;;8.98;2.05;;;17.40;99.90;;;;;;5055382;28;20113;-61
2023/08/07 11:28:54;;;;;;;6.90;2.08;;;17.50;99.90;;;;;;5073224;28;20075;-61
2023/08/07 11:31:20;;;;;;;7.65;2.53;;;17.50;99.90;;;;;;5072963;28;20036;-61
2023/08/07 11:33:46;;;;;;;9.75;2.20;;;17.60;99.90;;;;;;5071943;28;20113;-60
2023/08/07 11:36:13;;;;;;;8.25;2.20;;;17.70;99.90;;;;;;5071716;28;20478;-60
2023/08/07 11:38:42;;;;;;;6.30;2.05;;;17.70;99.90;;;;;;5055277;28;20146;-61
2023/08/07 11:41:10;;;;;;;11.48;2.70;;;17.70;99.90;;;;;;5054859;28;20083;-60
2023/08/07 11:43:36;;;;;;;7.07;2.22;;;17.70;99.90;;;;;;5073065;28;20101;-61
2023/08/07 11:46:05;;;;;;;8.68;2.17;;;17.60;99.90;;;;;;5073220;28;20396;-62
2023/08/07 11:48:34;;;;;;;9.63;3.40;;;17.40;99.90;;;;;;5072026;28;20051;-60
2023/08/07 11:51:00;;;;;;;11.05;2.67;;;17.30;99.90;;;;;;5072529;28;20075;-61
2023/08/07 11:53:31;;;;;;;14.02;3.17;;;17.20;99.90;;;;;;5073018;28;20047;-61
2023/08/07 11:56:09;;;;;;;5.75;1.92;;;16.90;99.90;;;;;;5060090;28;20046;-61
2023/08/07 11:58:39;;;;;;;5.82;2.05;;;16.50;99.90;;;;;;5067556;28;20047;-61
2023/08/07 12:01:26;;;;;;;6.63;2.38;;;16.30;99.90;;;;;;5086760;28;20158;-61
2023/08/07 12:04:08;;;;;;;7.70;2.70;;;16.10;99.90;;;;;;5054848;28;20068;-61
2023/08/07 12:06:35;;;;;;;7.78;2.53;;;16.30;99.90;;;;;;5071455;28;20040;-61
2023/08/07 12:09:02;;;;;;;5.82;2.08;;;16.40;99.90;;;;;;5071940;28;20127;-61
2023/08/07 12:11:29;;;;;;;5.72;2.08;;;16.60;99.90;;;;;;5055884;28;20044;-60
2023/08/07 12:13:55;;;;;;;6.35;2.38;;;16.80;99.90;;;;;;5090338;28;20116;-62
2023/08/07 12:16:21;;;;;;;6.25;1.60;;;17.00;99.90;;;;;;5071712;28;20119;-62
2023/08/07 12:18:48;;;;;;;7.03;1.75;;;17.20;99.90;;;;;;5072049;28;20051;-62
2023/08/07 12:21:17;;;;;;;6.00;1.95;;;17.40;99.90;;;;;;5085433;28;20136;-61
2023/08/07 12:23:44;;;;;;;8.18;2.28;;;17.60;99.90;;;;;;5063981;28;20097;-62
2023/08/07 12:26:10;;;;;;;5.00;2.05;;;17.80;99.90;;;;;;5072239;28;20048;-62
2023/08/07 12:28:36;;;;;;;7.00;2.85;;;17.60;99.90;;;;;;5090232;28;20389;-62
2023/08/07 12:31:03;;;;;;;6.82;2.10;;;17.50;99.90;;;;;;5071098;28;20467;-62
2023/08/07 12:33:31;;;;;;;6.68;2.50;;;17.40;99.90;;;;;;5071489;28;20040;-61
2023/08/07 12:35:58;;;;;;;8.32;2.63;;;17.40;99.90;;;;;;5072130;28;20044;-62
2023/08/07 12:38:24;;;;;;;5.47;2.20;;;17.40;99.90;;;;;;5089719;28;20043;-61
2023/08/07 12:40:50;;;;;;;9.35;2.50;;;17.40;99.90;;;;;;5072104;28;20404;-62
2023/08/07 12:43:15;;;;;;;8.13;2.95;;;17.50;99.90;;;;;;5090008;28;20409;-62
2023/08/07 12:45:41;;;;;;;7.00;2.45;;;17.50;99.90;;;;;;5071731;28;20050;-61
2023/08/07 12:48:07;;;;;;;6.22;2.20;;;17.50;99.90;;;;;;5059450;28;20071;-61